OENG

Nejran Airport

Saudi Arabia
TAF OENG 202300Z 2100/2206 33006G16KT 7000 FEW030 SCT090 TEMPO 2100/2112 4000 DU BLDU BECMG 2112/2114 36016KT
Issued Valid From Valid To
Jul-20 @ 23:00 UTC
(11 hours ago)
Jul-21 @ 00:00 UTC
(10 hours ago)
Jul-22 @ 06:00 UTC
(in 20 hours)
Jul-21 @ 00:00 to Jul-21 @ 12:00
TAF OENG 202300Z 2100/2206 33006G16KT 7000 FEW030 SCT090
Wind Visibility Clouds
330° at 6 knots
 Gusting to 16 knots
7,001 meters
  • Few at 3,000' AGL
  • Scattered at 9,000' AGL
Temporary Jul-21 @ 00:00 to Jul-21 @ 12:00
TEMPO 2100/2112 4000 DU BLDU
Visibility Conditions
4,007 meters
  • Dust
  • Blowing
  • Dust
Becoming Jul-21 @ 12:00 to Jul-22 @ 06:00
BECMG 2112/2114 36016KT
Wind Visibility Clouds
360° at 16 knots 7,001 meters
  • Few at 3,000' AGL
  • Scattered at 9,000' AGL
TAF OENG 202300Z 2100/2206 33006G16KT 7000 FEW030 SCT090 TEMPO 2100/2112 4000 DU BLDU BECMG 2112/2114 36016KT
Issued Jul-20 @ 23:00 UTC
(11 hours ago)
Valid From Jul-21 @ 00:00 UTC
(10 hours ago)
Valid To Jul-22 @ 06:00 UTC
(in 20 hours)
Jul-21 @ 00:00 - Jul-21 @ 12:00
Wind Visibility
330° at 6 knots
 Gusting to 16 knots
7,001 meters
Clouds
  • Few at 3,000' AGL
  • Scattered at 9,000' AGL
Temporary Jul-21 @ 00:00 - Jul-21 @ 12:00
Conditions
  • Dust
  • Blowing
  • Dust
Becoming Jul-21 @ 12:00 - Jul-22 @ 06:00
Wind Visibility
360° at 16 knots 7,001 meters
Clouds
  • Few at 3,000' AGL
  • Scattered at 9,000' AGL